Latest Weather Observations for Kununurra Airport

IDD60801

Issued at 5:01 pm CST Friday 12 February 2016 (issued every 30 minutes, with the page automatically refreshed every 10 minutes)

About weather observations | Map of weather stations | Latest weather observations for NT | Other Formats
Station Details ID: 002056 Name: KUNUNURRA AERO Lat: -15.78 Lon: 128.71 Height: 44.0 m
Data from the previous 72 hours. | See also: Recent months at Kununurra Airport
Date/Time
CST
Temp
°C
App
Temp
°C
Dew
Point
Rel
Hum
%
Delta-T
°C
Wind Press
QNH
hPa
Press
MSL
hPa
Rain
since 9 am
mm
Dir
 
Spd
km/h
Gust
km/h
Spd
kts
Gust
kts
12/05:00pm 33.5 36.5 22.0 51 7.9 NW 9 11 5 6 1005.5 1005.2 0.0
12/04:30pm 33.3 36.3 22.7 53 7.3 N 11 15 6 8 1005.6 1005.3 0.0
12/04:00pm 35.2 38.1 22.5 47 8.8 WNW 11 13 6 7 1005.4 1005.1 0.0
12/03:30pm 34.9 36.5 22.2 47 8.7 WNW 17 24 9 13 1005.9 1005.6 0.0
12/03:00pm 35.4 37.5 22.4 47 9.0 NNW 15 20 8 11 1006.4 1006.1 0.0
12/02:30pm 35.2 36.8 22.9 49 8.5 NNE 19 35 10 19 1006.6 1006.3 0.0
12/02:00pm 36.8 38.8 22.2 43 10.1 E 15 20 8 11 1006.8 1006.5 0.0
12/01:30pm 37.1 38.8 21.6 40 10.6 ENE 15 24 8 13 1007.1 1006.8 0.0
12/01:00pm 36.5 37.9 21.1 40 10.5 E 15 24 8 13 1007.6 1007.3 0.0
12/12:30pm 36.9 39.5 21.9 42 10.3 NE 11 22 6 12 1008.0 1007.7 0.0
12/12:00pm 36.6 40.2 22.0 43 10.0 NNE 6 13 3 7 1008.5 1008.2 0.0
12/11:30am 35.2 37.7 21.1 43 9.6 S 9 15 5 8 1008.9 1008.6 0.0
12/11:00am 35.2 38.7 21.8 45 9.2 NNW 6 11 3 6 1009.1 1008.8 0.0
12/10:30am 34.5 38.6 22.2 48 8.4 NNW 4 7 2 4 1009.3 1009.0 0.0
12/10:00am 33.3 37.1 22.4 52 7.5 SW 6 7 3 4 1009.4 1009.1 0.0
12/09:30am 33.1 37.9 22.8 54 7.1 ENE 2 7 1 4 1009.7 1009.4 0.0
12/09:00am 31.8 36.0 23.1 60 6.0 ESE 6 7 3 4 1009.6 1009.3 0.0
12/08:30am 30.1 34.2 23.3 67 4.7 SE 7 13 4 7 1009.5 1009.2 0.0
12/08:00am 28.4 32.8 23.8 76 3.2 E 7 9 4 5 1009.2 1008.9 0.0
12/07:30am 26.0 31.5 24.0 89 1.4 NW 2 6 1 3 1008.7 1008.4 0.0
12/07:00am 26.1 30.8 23.4 85 1.8 E 4 7 2 4 1008.6 1008.3 0.0
12/06:30am 25.6 30.1 22.9 85 1.8 SSW 4 7 2 4 1008.4 1008.1 0.0
12/06:00am 26.8 30.4 23.1 80 2.5 SSE 9 11 5 6 1008.3 1008.0 0.0
12/05:30am 26.6 31.3 22.0 76 3.1 CALM 0 0 0 0 1007.7 1007.4 0.0
12/05:00am 25.8 30.5 22.7 83 2.1 NW 2 7 1 4 1007.6 1007.3 0.0
12/04:30am 26.4 31.4 22.5 79 2.6 CALM 0 0 0 0 1007.6 1007.3 0.0
12/04:00am 27.4 31.2 22.4 74 3.4 NNE 6 7 3 4 1007.6 1007.3 0.0
12/03:30am 27.1 30.8 22.3 75 3.2 WNW 6 7 3 4 1007.7 1007.4 0.0
12/03:00am 27.9 32.4 22.2 71 3.8 ENE 2 7 1 4 1007.8 1007.5 0.0
12/02:30am 27.7 31.2 22.2 72 3.7 NNW 7 9 4 5 1007.8 1007.5 0.0
12/02:00am 27.6 30.4 22.3 73 3.6 NNW 11 15 6 8 1007.6 1007.3 0.0
12/01:30am 28.1 29.4 21.6 68 4.4 NNW 17 20 9 11 1007.8 1007.5 0.0
12/01:00am 28.2 30.6 21.5 67 4.5 NW 11 13 6 7 1008.3 1008.0 0.0
12/12:30am 29.5 31.4 21.4 61 5.4 ESE 13 17 7 9 1008.8 1008.5 0.0
12/12:00am 29.3 30.8 21.3 62 5.4 E 15 20 8 11 1008.8 1008.5 0.0
 
Date/Time
CST
Temp
°C
App
Temp
°C
Dew
Point
Rel
Hum
%
Delta-T
°C
Wind Press
QNH
hPa
Press
MSL
hPa
Rain
since 9 am
mm
Dir
 
Spd
km/h
Gust
km/h
Spd
kts
Gust
kts
11/11:30pm 29.5 31.6 21.7 63 5.3 SSE 13 22 7 12 1008.9 1008.6 0.0
11/11:00pm 28.6 31.7 21.1 64 5.0 S 6 9 3 5 1008.1 1007.8 0.0
11/10:30pm 30.2 32.3 19.3 52 7.1 ESE 7 9 4 5 1007.8 1007.5 0.0
11/10:00pm 29.8 31.4 19.2 53 6.9 NNE 9 11 5 6 1007.5 1007.2 0.0
11/09:30pm 30.3 32.1 19.6 52 7.0 NNE 9 13 5 7 1007.2 1006.9 0.0
11/09:00pm 30.4 32.4 20.0 53 6.9 N 9 13 5 7 1006.8 1006.5 0.0
11/08:30pm 31.4 31.7 19.7 49 7.7 N 17 24 9 13 1006.3 1006.0 0.0
11/08:00pm 32.4 32.8 20.6 49 7.9 N 19 24 10 13 1005.7 1005.4 0.0
11/07:30pm 33.1 33.5 20.6 47 8.4 N 19 24 10 13 1005.0 1004.7 0.0
11/07:00pm 37.1 39.7 20.0 37 11.5 E 6 7 3 4 1004.8 1004.5 0.0
11/06:30pm 37.7 38.7 17.7 31 13.1 ESE 9 11 5 6 1004.5 1004.2 0.0
11/06:00pm 37.9 38.5 17.8 30 13.1 ESE 11 15 6 8 1003.9 1003.6 0.0
11/05:30pm 37.7 38.7 18.7 33 12.6 SE 11 17 6 9 1003.5 1003.2 0.0
11/05:00pm 37.1 37.2 19.1 35 11.9 ESE 17 24 9 13 1003.5 1003.2 0.0
11/04:30pm 38.1 38.1 18.0 30 13.2 SSE 15 20 8 11 1003.3 1003.0 0.0
11/04:00pm 39.6 38.7 17.7 28 14.4 SE 19 30 10 16 1003.7 1003.4 0.0
11/03:30pm 39.3 39.4 17.4 27 14.3 SSE 13 22 7 12 1003.9 1003.6 0.0
11/03:00pm 38.9 38.5 17.1 28 14.2 SE 15 20 8 11 1004.3 1004.0 0.0
11/02:30pm 38.2 38.5 20.5 35 12.0 ESE 19 26 10 14 1004.9 1004.6 0.0
11/02:00pm 38.5 42.2 22.5 39 11.1 ESE 7 15 4 8 1005.2 1004.9 0.0
11/01:30pm 37.4 40.3 23.1 44 10.0 SSW 13 17 7 9 1005.6 1005.3 0.0
11/01:00pm 36.6 40.0 24.1 48 8.8 SSW 13 19 7 10 1006.1 1005.8 0.0
11/12:30pm 36.2 39.8 23.1 47 9.1 SSW 9 17 5 9 1006.6 1006.3 0.0
11/12:00pm 36.0 39.5 23.6 48 8.7 SSE 11 15 6 8 1007.0 1006.7 0.0
11/11:30am 35.2 39.0 23.5 50 8.2 SSE 9 11 5 6 1007.3 1007.0 0.0
11/11:00am 34.7 40.0 24.9 56 7.0 SSE 6 13 3 7 1007.7 1007.4 0.0
11/10:30am 33.6 38.4 24.2 58 6.6 N 6 13 3 7 1008.1 1007.8 0.0
11/10:00am 32.8 38.6 24.6 62 5.8 NE 2 7 1 4 1008.3 1008.0 0.0
11/09:30am 32.0 37.0 24.8 65 5.1 NE 7 9 4 5 1008.4 1008.1 0.0
11/09:00am 30.5 35.3 24.2 69 4.4 NNE 6 9 3 5 1008.3 1008.0 0.0
11/08:30am 29.7 34.6 24.3 73 3.8 S 6 11 3 6 1008.2 1007.9 0.0
11/08:00am 29.1 33.8 24.0 74 3.5 E 6 7 3 4 1007.7 1007.4 0.0
11/07:30am 27.4 32.5 24.7 85 1.9 ESE 6 7 3 4 1007.5 1007.2 0.0
11/07:00am 25.7 30.6 23.7 89 1.4 SE 4 6 2 3 1007.1 1006.8 0.0
11/06:30am 25.7 30.2 23.7 89 1.4 E 6 7 3 4 1006.9 1006.6 0.0
11/06:00am 26.3 31.3 24.5 90 1.2 SSE 6 9 3 5 1006.6 1006.3 0.0
11/05:30am 26.5 31.4 24.3 88 1.5 SSE 6 7 3 4 1006.4 1006.1 0.0
11/05:00am 26.1 32.0 24.1 89 1.4 CALM 0 6 0 3 1006.4 1006.1 0.0
11/04:30am 25.8 30.2 23.5 87 1.6 SSW 6 7 3 4 1006.4 1006.1 0.0
11/04:00am 26.2 31.5 23.1 83 2.1 CALM 0 6 0 3 1006.4 1006.1 0.0
11/03:30am 27.0 31.0 22.8 78 2.9 ESE 6 7 3 4 1006.3 1006.0 0.0
11/03:00am 27.4 30.9 22.1 73 3.6 ENE 7 9 4 5 1006.2 1005.9 0.0
11/02:30am 27.3 30.7 22.0 73 3.6 NNE 7 9 4 5 1006.2 1005.9 0.0
11/02:00am 27.6 31.2 22.3 73 3.6 N 7 9 4 5 1006.1 1005.8 0.0
11/01:30am 28.0 32.6 23.2 75 3.3 NW 4 6 2 3 1006.3 1006.0 0.0
11/01:00am 27.8 31.5 22.5 73 3.6 NW 7 9 4 5 1006.6 1006.3 0.0
11/12:30am 29.2 32.4 21.7 64 5.1 NNE 7 11 4 6 1007.0 1006.7 0.0
11/12:00am 28.7 32.1 22.0 67 4.5 N 7 9 4 5 1007.3 1007.0 0.0
 
Date/Time
CST
Temp
°C
App
Temp
°C
Dew
Point
Rel
Hum
%
Delta-T
°C
Wind Press
QNH
hPa
Press
MSL
hPa
Rain
since 9 am
mm
Dir
 
Spd
km/h
Gust
km/h
Spd
kts
Gust
kts
10/11:30pm 29.6 33.6 22.1 64 5.1 NNW 4 6 2 3 1007.2 1006.9 0.0
10/11:00pm 29.9 32.6 21.3 60 5.8 ENE 9 11 5 6 1007.0 1006.7 0.0
10/10:30pm 29.9 32.4 21.0 59 6.0 N 9 11 5 6 1006.7 1006.4 0.0
10/10:00pm 30.6 33.6 20.8 56 6.5 NNW 6 15 3 8 1006.8 1006.5 0.0
10/09:30pm 31.1 33.8 21.3 56 6.6 SSW 9 13 5 7 1006.1 1005.8 0.0
10/09:00pm 31.2 33.8 20.5 53 7.1 SSW 7 9 4 5 1006.1 1005.8 0.0
10/08:30pm 30.8 32.6 20.4 54 6.9 W 11 15 6 8 1005.5 1005.2 0.0
10/08:00pm 32.7 32.4 19.6 46 8.6 NE 20 26 11 14 1005.0 1004.7 0.0
10/07:52pm 33.2 31.6 19.3 44 9.2 ENE 26 37 14 20 1004.9 1004.6 0.0
10/07:30pm 34.1 30.1 18.6 40 10.2 E 37 50 20 27 1004.7 1004.4 0.0
10/07:24pm 34.7 32.3 16.5 33 11.6 ESE 24 50 13 27 1004.5 1004.2 0.0
10/07:00pm 35.7 33.5 18.7 36 11.2 ESE 28 44 15 24 1004.0 1003.7 0.0
10/06:51pm 36.6 36.3 19.1 35 11.6 SE 19 44 10 24 1004.0 1003.7 0.0
10/06:30pm 38.4 39.7 19.3 33 12.8 SE 11 13 6 7 1003.2 1002.9 0.0
10/06:00pm 39.1 40.6 18.9 31 13.4 SE 9 13 5 7 1003.2 1002.9 0.0
10/05:30pm 39.4 40.6 19.1 30 13.6 SSE 11 15 6 8 1003.2 1002.9 0.0
10/05:00pm 39.2 39.8 19.5 32 13.2 S 15 19 8 10 1003.1 1002.8 0.0
10/04:30pm 39.1 40.3 19.9 33 13.0 SSE 13 19 7 10 1003.0 1002.7 0.0
10/04:00pm 39.4 40.0 18.6 29 13.8 S 13 24 7 13 1003.4 1003.1 0.0
10/03:30pm 39.5 40.8 20.2 32 13.1 SSE 13 22 7 12 1004.0 1003.7 0.0
10/03:00pm 39.5 39.8 18.7 29 13.8 SSE 15 24 8 13 1004.4 1004.1 0.0
10/02:30pm 39.5 39.3 17.6 27 14.4 SE 15 24 8 13 1004.9 1004.6 0.0
10/02:00pm 38.8 39.2 18.1 29 13.6 SSE 13 22 7 12 1005.2 1004.9 0.0
10/01:30pm 38.8 40.2 21.0 35 12.2 SSE 15 22 8 12 1005.5 1005.2 0.0
10/01:00pm 37.9 39.9 20.7 36 11.7 SSE 11 19 6 10 1005.9 1005.6 0.0
10/12:30pm 37.8 41.4 22.3 41 10.7 S 7 15 4 8 1006.4 1006.1 0.0
10/12:00pm 36.7 39.8 23.5 46 9.2 SSW 13 20 7 11 1006.7 1006.4 0.0
10/11:30am 35.8 37.5 22.4 46 9.3 SW 17 24 9 13 1007.1 1006.8 0.0
10/11:00am 35.3 37.7 23.0 49 8.5 WSW 15 19 8 10 1007.5 1007.2 0.0
10/10:30am 34.2 37.0 23.6 54 7.4 SW 15 20 8 11 1007.8 1007.5 0.0
10/10:00am 33.4 35.3 22.8 53 7.3 WSW 17 20 9 11 1007.9 1007.6 0.0
10/09:30am 32.8 34.6 23.2 57 6.7 WSW 19 24 10 13 1008.1 1007.8 0.0
10/09:00am 31.8 34.5 24.1 63 5.4 W 17 22 9 12 1008.0 1007.7 0.0
10/08:30am 31.0 35.4 25.1 71 4.2 WSW 11 15 6 8 1007.6 1007.3 0.0
10/08:00am 29.1 35.7 25.3 80 2.7 CALM 0 0 0 0 1007.4 1007.1 0.0
10/07:30am 28.0 34.1 25.6 87 1.7 N 4 7 2 4 1007.1 1006.8 0.0
10/07:00am 27.2 32.5 25.0 88 1.5 NNE 6 7 3 4 1006.9 1006.6 0.0
10/06:30am 26.7 31.8 24.7 89 1.4 N 6 6 3 3 1006.8 1006.5 0.0
10/06:00am 27.2 33.7 25.0 88 1.5 CALM 0 0 0 0 1006.6 1006.3 0.0
10/05:30am 26.7 33.0 24.7 89 1.4 CALM 0 0 0 0 1006.4 1006.1 0.0
10/05:00am 27.3 33.7 24.9 87 1.7 CALM 0 0 0 0 1006.4 1006.1 0.0
10/04:30am 27.3 33.5 24.6 85 1.9 CALM 0 0 0 0 1006.4 1006.1 0.0
10/04:00am 27.0 33.0 24.3 85 1.9 CALM 0 0 0 0 1006.6 1006.3 0.0
10/03:30am 27.1 33.1 24.2 84 2.0 CALM 0 0 0 0 1006.6 1006.3 0.0
10/03:00am 27.5 33.4 24.1 82 2.4 CALM 0 0 0 0 1006.8 1006.5 0.0
10/02:30am 27.6 33.2 23.6 79 2.8 CALM 0 0 0 0 1007.1 1006.8 0.0
10/02:00am 27.3 31.6 23.7 81 2.5 N 7 7 4 4 1007.4 1007.1 0.0
10/01:30am 27.3 31.6 23.3 79 2.7 N 6 7 3 4 1007.9 1007.6 0.0
10/01:00am 27.6 31.8 23.2 77 3.0 NW 6 9 3 5 1008.0 1007.7 0.0
10/12:30am 27.7 31.7 23.1 76 3.1 NW 7 9 4 5 1008.3 1008.0 0.0
10/12:00am 28.3 31.5 23.0 73 3.6 N 11 15 6 8 1008.5 1008.2 0.0
 
Date/Time
CST
Temp
°C
App
Temp
°C
Dew
Point
Rel
Hum
%
Delta-T
°C
Wind Press
QNH
hPa
Press
MSL
hPa
Rain
since 9 am
mm
Dir
 
Spd
km/h
Gust
km/h
Spd
kts
Gust
kts
09/11:30pm 29.1 31.3 22.6 68 4.4 N 15 19 8 10 1008.3 1008.0 0.0
09/11:00pm 29.6 33.2 23.1 68 4.5 NE 9 13 5 7 1008.2 1007.9 0.0
09/10:30pm 29.7 33.8 23.2 68 4.5 N 7 11 4 6 1007.9 1007.6 0.0
09/10:00pm 30.3 33.9 23.0 65 5.0 NNE 9 13 5 7 1007.7 1007.4 0.0
09/09:30pm 29.6 32.8 23.1 68 4.5 NNE 11 15 6 8 1007.3 1007.0 0.0
09/09:00pm 29.8 32.5 22.8 66 4.8 N 13 17 7 9 1006.8 1006.5 0.0
09/08:30pm 30.4 33.4 22.6 63 5.3 N 11 15 6 8 1006.7 1006.4 0.0
09/08:00pm 31.4 33.3 22.7 60 6.0 N 17 24 9 13 1006.4 1006.1 0.0
09/07:30pm 32.7 35.8 22.8 56 6.8 NE 11 20 6 11 1006.1 1005.8 0.0
09/07:00pm 37.3 40.0 20.6 37 11.3 SSE 7 9 4 5 1005.8 1005.5 0.0

Other Formats:

Comma delimited format used in spreadsheet applications
http://www.bom.gov.au/fwo/IDD60801/IDD60801.94216.axf

JavaScript Object Notation format (JSON) in row-major order
http://www.bom.gov.au/fwo/IDD60801/IDD60801.94216.json